createdAt,value
2023-08-03T00:00:07.621Z,26.00
2023-08-03T00:02:35.842Z,26.00
2023-08-03T00:05:04.211Z,26.00
2023-08-03T00:07:31.681Z,26.00
2023-08-03T00:09:58.692Z,25.90
2023-08-03T00:12:26.112Z,26.00
2023-08-03T00:14:53.342Z,26.00
2023-08-03T00:17:21.147Z,26.00
2023-08-03T00:19:48.033Z,25.90
2023-08-03T00:22:14.927Z,25.90
2023-08-03T00:24:41.817Z,25.90
2023-08-03T00:27:08.710Z,25.90
2023-08-03T00:29:36.269Z,25.90
2023-08-03T00:32:03.302Z,25.90
2023-08-03T00:34:31.192Z,25.90
2023-08-03T00:36:58.434Z,25.90
2023-08-03T00:39:25.424Z,25.90
2023-08-03T00:41:52.881Z,25.90
2023-08-03T00:44:19.982Z,25.90
2023-08-03T00:46:47.189Z,25.90
2023-08-03T00:49:14.240Z,25.90
2023-08-03T00:51:41.381Z,25.90
2023-08-03T00:54:08.980Z,25.90
2023-08-03T00:56:36.592Z,25.90
2023-08-03T00:59:04.070Z,25.90
2023-08-03T01:01:30.989Z,25.90
2023-08-03T01:03:58.059Z,25.90
2023-08-03T01:06:25.013Z,25.90
2023-08-03T01:08:51.924Z,25.90
2023-08-03T01:11:18.894Z,25.90
2023-08-03T01:13:45.910Z,25.90
2023-08-03T01:16:12.980Z,25.90
2023-08-03T01:18:43.380Z,25.90
2023-08-03T01:21:11.046Z,25.90
2023-08-03T01:23:37.960Z,25.90
2023-08-03T01:26:04.847Z,25.90
2023-08-03T01:28:31.777Z,25.90
2023-08-03T01:30:59.706Z,25.90
2023-08-03T01:33:26.988Z,25.90
2023-08-03T01:35:54.038Z,25.90
2023-08-03T01:38:21.111Z,25.90
2023-08-03T01:40:48.086Z,25.90
2023-08-03T01:43:16.091Z,25.90
2023-08-03T01:45:42.975Z,25.90
2023-08-03T01:48:09.883Z,25.90
2023-08-03T01:50:36.862Z,25.90
2023-08-03T01:53:03.740Z,25.90
2023-08-03T01:55:30.878Z,25.80
2023-08-03T01:57:57.809Z,25.90
2023-08-03T02:00:25.506Z,25.90
2023-08-03T02:02:53.079Z,25.90
2023-08-03T02:05:20.022Z,25.90
2023-08-03T02:07:54.432Z,25.90
2023-08-03T02:10:22.395Z,25.90
2023-08-03T02:12:49.300Z,25.80
2023-08-03T02:15:16.970Z,25.80
2023-08-03T02:17:44.850Z,25.80
2023-08-03T02:20:12.298Z,25.80
2023-08-03T02:22:39.312Z,25.90
2023-08-03T02:25:06.978Z,25.80
2023-08-03T02:27:33.888Z,25.80
2023-08-03T02:30:01.180Z,25.80
2023-08-03T02:32:28.726Z,25.90
2023-08-03T02:34:55.833Z,25.80
2023-08-03T02:37:22.762Z,25.80
2023-08-03T02:39:49.632Z,25.80
2023-08-03T02:42:17.430Z,25.80
2023-08-03T02:44:44.396Z,25.80
2023-08-03T02:47:11.270Z,25.80
2023-08-03T02:49:38.194Z,25.80
2023-08-03T02:52:05.383Z,25.80
2023-08-03T02:54:32.574Z,25.80
2023-08-03T02:56:59.452Z,25.80
2023-08-03T02:59:26.369Z,25.80
2023-08-03T03:01:53.311Z,25.80
2023-08-03T03:04:20.235Z,25.80
2023-08-03T03:06:47.861Z,25.80
2023-08-03T03:09:15.129Z,25.80
2023-08-03T03:11:42.063Z,25.80
2023-08-03T03:14:09.021Z,25.80
2023-08-03T03:16:35.942Z,25.80
2023-08-03T03:19:03.077Z,25.80
2023-08-03T03:21:29.999Z,25.80
2023-08-03T03:23:56.908Z,25.80
2023-08-03T03:26:23.794Z,25.80
2023-08-03T03:28:50.676Z,25.80
2023-08-03T03:31:18.310Z,25.80
2023-08-03T03:33:45.224Z,25.80
2023-08-03T03:36:12.150Z,25.80
2023-08-03T03:38:39.122Z,25.90
2023-08-03T03:41:06.026Z,25.90
2023-08-03T03:43:33.620Z,25.90
2023-08-03T03:46:00.627Z,25.80
2023-08-03T03:48:27.584Z,25.90
2023-08-03T03:50:54.490Z,25.90
2023-08-03T03:53:21.384Z,25.90
2023-08-03T03:55:48.783Z,25.90
2023-08-03T03:58:15.715Z,25.90
2023-08-03T04:00:42.708Z,25.90
2023-08-03T04:03:09.855Z,25.90
2023-08-03T04:05:37.654Z,25.90
2023-08-03T04:08:05.294Z,25.90
2023-08-03T04:10:32.503Z,25.90
2023-08-03T04:12:59.388Z,25.90
2023-08-03T04:15:26.413Z,26.00
2023-08-03T04:17:53.867Z,26.00
2023-08-03T04:20:20.789Z,26.00
2023-08-03T04:22:47.711Z,26.00
2023-08-03T04:25:14.906Z,26.00
2023-08-03T04:27:41.796Z,26.00
2023-08-03T04:30:11.485Z,26.00
2023-08-03T04:32:38.630Z,26.00
2023-08-03T04:35:05.914Z,26.00
2023-08-03T04:37:32.871Z,26.00
2023-08-03T04:39:59.764Z,25.90
2023-08-03T04:42:27.612Z,25.90
2023-08-03T04:44:54.685Z,25.70
2023-08-03T04:47:21.573Z,25.50
2023-08-03T04:49:48.461Z,25.30
2023-08-03T04:52:15.621Z,25.00
2023-08-03T04:54:43.044Z,24.70
2023-08-03T04:57:09.919Z,24.40
2023-08-03T04:59:36.847Z,24.10
2023-08-03T05:02:03.932Z,23.90
2023-08-03T05:04:30.906Z,23.60
2023-08-03T05:06:58.568Z,23.30
2023-08-03T05:09:25.535Z,23.00
2023-08-03T05:11:52.382Z,22.80
2023-08-03T05:14:19.308Z,22.60
2023-08-03T05:16:46.322Z,22.30
2023-08-03T05:19:13.864Z,22.10
2023-08-03T05:21:40.881Z,21.90
2023-08-03T05:24:07.823Z,21.70
2023-08-03T05:26:34.899Z,21.60
2023-08-03T05:29:01.833Z,21.40
2023-08-03T05:31:29.704Z,21.30
2023-08-03T05:33:56.816Z,21.20
2023-08-03T05:36:24.700Z,21.20
2023-08-03T05:38:54.685Z,21.10
2023-08-03T05:41:22.893Z,21.00
2023-08-03T05:43:50.682Z,20.90
2023-08-03T05:46:18.471Z,20.90
2023-08-03T05:48:48.665Z,20.90
2023-08-03T05:51:20.448Z,20.80
2023-08-03T05:53:47.337Z,20.70
2023-08-03T05:56:14.242Z,20.60
2023-08-03T05:58:41.341Z,20.60
2023-08-03T06:01:11.478Z,20.60
2023-08-03T06:03:40.788Z,20.60
2023-08-03T06:06:10.805Z,20.60
2023-08-03T06:08:41.128Z,20.60
2023-08-03T06:11:09.005Z,20.60
2023-08-03T06:13:36.270Z,20.60
2023-08-03T06:16:13.788Z,20.60
2023-08-03T06:18:46.385Z,20.60
2023-08-03T06:21:14.088Z,20.60
2023-08-03T06:23:41.147Z,20.60
2023-08-03T06:26:12.694Z,20.60
2023-08-03T06:28:40.116Z,20.60
2023-08-03T06:31:16.383Z,20.60
2023-08-03T06:33:44.559Z,20.60
2023-08-03T06:36:13.396Z,20.70
2023-08-03T06:38:41.460Z,20.70
2023-08-03T06:41:09.941Z,20.70
2023-08-03T06:43:37.037Z,20.70
2023-08-03T06:46:04.240Z,20.70
2023-08-03T06:48:31.396Z,20.80
2023-08-03T06:50:58.642Z,20.80
2023-08-03T06:53:25.658Z,20.80
2023-08-03T06:55:52.687Z,20.90
2023-08-03T06:58:19.871Z,20.90
2023-08-03T07:00:47.710Z,21.00
2023-08-03T07:03:14.887Z,21.00
2023-08-03T07:05:42.290Z,21.00
2023-08-03T07:08:09.954Z,21.10
2023-08-03T07:10:37.282Z,21.10
2023-08-03T07:13:05.685Z,21.20
2023-08-03T07:15:35.192Z,21.20
2023-08-03T07:18:03.524Z,21.20
2023-08-03T07:20:30.707Z,21.30
2023-08-03T07:22:57.810Z,21.30
2023-08-03T07:25:25.374Z,21.30
2023-08-03T07:27:53.247Z,21.40
2023-08-03T07:30:20.486Z,21.40
2023-08-03T07:32:47.876Z,21.40
2023-08-03T07:35:14.954Z,21.40
2023-08-03T07:37:43.584Z,21.50
2023-08-03T07:40:10.881Z,21.50
2023-08-03T07:42:37.781Z,21.50
2023-08-03T07:45:04.866Z,21.60
2023-08-03T07:47:32.410Z,21.60
2023-08-03T07:50:00.862Z,21.70
2023-08-03T07:52:27.800Z,21.70
2023-08-03T07:54:56.116Z,21.80
2023-08-03T07:57:23.184Z,21.80
2023-08-03T07:59:50.512Z,21.80
2023-08-03T08:02:18.529Z,21.80
2023-08-03T08:04:49.222Z,21.90
2023-08-03T08:07:16.393Z,21.90
2023-08-03T08:09:43.350Z,21.90
2023-08-03T08:12:10.288Z,21.90
2023-08-03T08:14:37.746Z,21.80
2023-08-03T08:19:34.859Z,21.90
2023-08-03T08:22:14.560Z,21.90
2023-08-03T08:24:43.015Z,21.90
2023-08-03T08:27:10.296Z,22.00
2023-08-03T08:29:38.852Z,22.00
2023-08-03T08:32:06.756Z,22.00
2023-08-03T08:34:33.776Z,22.00
2023-08-03T08:37:01.163Z,22.00
2023-08-03T08:39:30.568Z,22.00
2023-08-03T08:41:57.954Z,22.00
2023-08-03T08:44:25.020Z,22.00
2023-08-03T08:46:52.215Z,22.00
2023-08-03T08:54:20.614Z,22.00
2023-08-03T09:01:51.147Z,22.00
2023-08-03T09:06:58.975Z,22.00
2023-08-03T09:09:28.362Z,22.00
2023-08-03T09:11:57.396Z,22.00
2023-08-03T09:14:24.950Z,21.90
2023-08-03T09:16:52.071Z,22.00
2023-08-03T09:19:39.701Z,21.90
2023-08-03T09:22:07.091Z,21.90
2023-08-03T09:24:35.717Z,21.90
2023-08-03T09:27:03.013Z,21.90
2023-08-03T09:29:32.128Z,22.00
2023-08-03T09:32:02.127Z,22.00
2023-08-03T09:34:46.497Z,22.00
2023-08-03T09:37:14.680Z,22.10
2023-08-03T09:39:54.766Z,22.10
2023-08-03T09:44:56.003Z,22.10
2023-08-03T09:47:23.268Z,22.20
2023-08-03T09:49:51.537Z,22.10
2023-08-03T09:52:49.587Z,22.20
2023-08-03T09:55:22.257Z,22.20
2023-08-03T09:58:04.079Z,22.20
2023-08-03T10:00:31.785Z,22.20
2023-08-03T10:03:11.235Z,22.20
2023-08-03T10:05:40.880Z,22.20
2023-08-03T10:08:13.822Z,22.20
2023-08-03T10:10:44.517Z,22.20
2023-08-03T10:13:12.040Z,22.20
2023-08-03T10:15:39.948Z,22.10
2023-08-03T10:18:07.761Z,22.10
2023-08-03T10:20:35.992Z,22.10
2023-08-03T10:23:21.218Z,22.10
2023-08-03T10:25:58.612Z,22.10
2023-08-03T10:28:44.861Z,22.00
2023-08-03T10:31:19.459Z,22.00
2023-08-03T10:34:07.540Z,22.00
2023-08-03T10:36:42.243Z,22.00
2023-08-03T10:39:11.029Z,22.00
2023-08-03T10:41:39.333Z,22.00
2023-08-03T10:44:24.996Z,22.00
2023-08-03T10:46:52.973Z,21.90
2023-08-03T10:49:39.839Z,21.90
2023-08-03T10:52:17.849Z,21.90
2023-08-03T10:54:46.598Z,21.90
2023-08-03T10:57:14.536Z,21.90
2023-08-03T10:59:52.077Z,21.90
2023-08-03T11:02:27.543Z,21.90
2023-08-03T11:04:54.940Z,21.90
2023-08-03T11:07:23.730Z,22.00
2023-08-03T11:09:53.284Z,22.00
2023-08-03T11:12:23.766Z,22.00
2023-08-03T11:14:52.730Z,22.00
2023-08-03T11:17:27.220Z,22.00
2023-08-03T11:19:54.729Z,22.00
2023-08-03T11:22:22.610Z,22.00
2023-08-03T11:24:55.765Z,22.00
2023-08-03T11:27:23.513Z,22.00
2023-08-03T11:29:51.527Z,22.00
2023-08-03T11:32:25.522Z,22.00
2023-08-03T11:35:04.953Z,21.90
2023-08-03T11:37:32.697Z,21.90
2023-08-03T11:40:01.795Z,21.90
2023-08-03T11:42:29.770Z,21.90
2023-08-03T11:44:57.598Z,21.90
2023-08-03T11:47:24.920Z,21.90
2023-08-03T11:49:54.048Z,21.90
2023-08-03T11:52:21.992Z,21.90
2023-08-03T11:54:49.625Z,21.90
2023-08-03T11:57:36.649Z,21.90
2023-08-03T12:00:04.443Z,21.90
2023-08-03T12:02:42.397Z,21.90
2023-08-03T12:05:16.559Z,21.90
2023-08-03T12:08:05.862Z,21.90
2023-08-03T12:10:31.998Z,21.90
2023-08-03T12:13:02.712Z,21.90
2023-08-03T12:18:02.337Z,21.90
2023-08-03T12:20:29.680Z,21.90
2023-08-03T12:23:02.215Z,22.00
2023-08-03T12:25:31.362Z,22.00
2023-08-03T12:27:59.333Z,22.00
2023-08-03T12:30:26.323Z,21.90
2023-08-03T12:32:53.286Z,21.90
2023-08-03T12:35:20.318Z,21.90
2023-08-03T12:37:47.996Z,21.90
2023-08-03T12:40:15.484Z,21.90
2023-08-03T12:42:42.364Z,21.90
2023-08-03T12:45:09.431Z,22.00
2023-08-03T12:47:38.313Z,21.90
2023-08-03T12:50:05.812Z,22.00
2023-08-03T12:52:33.914Z,22.00
2023-08-03T12:55:00.821Z,22.10
2023-08-03T12:57:27.828Z,22.10
2023-08-03T12:59:54.745Z,22.10
2023-08-03T13:02:22.374Z,22.10
2023-08-03T13:04:54.032Z,22.20
2023-08-03T13:07:21.197Z,22.20
2023-08-03T13:09:48.374Z,22.20
2023-08-03T13:12:18.457Z,22.20
2023-08-03T13:14:45.380Z,22.20
2023-08-03T13:17:12.423Z,22.20
2023-08-03T13:19:39.880Z,22.30
2023-08-03T13:22:06.773Z,22.20
2023-08-03T13:24:34.223Z,22.20
2023-08-03T13:27:14.634Z,22.10
2023-08-03T13:29:45.311Z,22.00
2023-08-03T13:32:12.990Z,22.00
2023-08-03T13:34:39.998Z,21.90
2023-08-03T13:37:08.904Z,21.90
2023-08-03T13:39:35.979Z,21.90
2023-08-03T13:42:02.997Z,21.80
2023-08-03T13:44:30.111Z,21.80
2023-08-03T13:46:57.339Z,21.80
2023-08-03T13:49:24.970Z,21.80
2023-08-03T13:51:51.854Z,21.70
2023-08-03T13:54:18.733Z,21.70
2023-08-03T13:56:45.680Z,21.70
2023-08-03T13:59:13.378Z,21.60
2023-08-03T14:01:41.972Z,21.50
2023-08-03T14:04:10.304Z,21.50
2023-08-03T14:07:10.413Z,21.60
2023-08-03T14:09:24.512Z,21.80
2023-08-03T14:16:55.164Z,22.90
2023-08-03T14:19:24.093Z,23.20
2023-08-03T14:21:54.053Z,23.50
2023-08-03T14:26:52.097Z,24.10
2023-08-03T14:29:19.014Z,24.30
2023-08-03T14:31:46.391Z,24.50
2023-08-03T14:34:13.684Z,24.80
2023-08-03T14:36:40.719Z,25.00
2023-08-03T14:39:07.714Z,25.10
2023-08-03T14:41:36.446Z,25.30
2023-08-03T14:44:05.845Z,25.40
2023-08-03T14:46:33.950Z,25.50
2023-08-03T14:49:11.130Z,25.60
2023-08-03T14:54:09.859Z,25.70
2023-08-03T14:56:36.785Z,25.80
2023-08-03T14:59:04.385Z,25.90
2023-08-03T15:01:32.347Z,25.90
2023-08-03T15:04:01.256Z,25.90
2023-08-03T15:06:30.556Z,26.00
2023-08-03T15:08:57.581Z,26.10
2023-08-03T15:11:24.470Z,26.10
2023-08-03T15:13:59.031Z,26.20
2023-08-03T15:16:29.806Z,26.20
2023-08-03T15:18:57.653Z,26.30
2023-08-03T15:21:32.885Z,26.30
2023-08-03T15:24:01.368Z,26.40
2023-08-03T15:26:32.386Z,26.40
2023-08-03T15:29:03.544Z,26.40
2023-08-03T15:31:31.605Z,26.40
2023-08-03T15:34:02.207Z,26.40
2023-08-03T15:36:37.144Z,26.50
2023-08-03T15:39:07.662Z,26.50
2023-08-03T15:41:37.497Z,26.60
2023-08-03T15:44:07.947Z,26.60
2023-08-03T15:46:48.166Z,26.60
2023-08-03T15:49:26.688Z,26.60
2023-08-03T15:52:05.571Z,26.60
2023-08-03T15:54:40.721Z,26.60
2023-08-03T15:57:11.221Z,26.60
2023-08-03T15:59:38.735Z,26.60
2023-08-03T16:02:07.724Z,26.60
2023-08-03T16:04:35.319Z,26.60
2023-08-03T16:07:05.313Z,26.60
2023-08-03T16:09:32.243Z,26.60
2023-08-03T16:11:59.156Z,26.70
2023-08-03T16:14:26.112Z,26.80
2023-08-03T16:16:53.193Z,27.00
2023-08-03T16:19:20.251Z,27.10
2023-08-03T16:21:47.267Z,27.20
2023-08-03T16:24:14.196Z,27.30
2023-08-03T16:26:41.104Z,27.30
2023-08-03T16:29:08.801Z,27.40
2023-08-03T16:31:39.360Z,27.40
2023-08-03T16:34:12.569Z,27.30
2023-08-03T16:36:40.049Z,27.20
2023-08-03T16:39:07.411Z,27.30
2023-08-03T16:41:36.594Z,27.20
2023-08-03T16:44:03.633Z,27.20
2023-08-03T16:46:30.548Z,27.20
2023-08-03T16:48:57.506Z,27.10
2023-08-03T16:51:24.940Z,27.10
2023-08-03T16:53:52.328Z,27.10
2023-08-03T16:56:19.292Z,27.20
2023-08-03T16:58:46.341Z,27.20
2023-08-03T17:01:14.537Z,27.20
2023-08-03T17:03:41.847Z,27.20
2023-08-03T17:06:12.217Z,27.20
2023-08-03T17:08:39.205Z,27.20
2023-08-03T17:11:09.035Z,27.30
2023-08-03T17:13:36.003Z,27.30
2023-08-03T17:16:05.799Z,27.30
2023-08-03T17:18:36.144Z,27.30
2023-08-03T17:21:03.357Z,27.30
2023-08-03T17:23:33.152Z,27.30
2023-08-03T17:26:00.985Z,27.30
2023-08-03T17:28:30.012Z,27.30
2023-08-03T17:31:01.710Z,27.30
2023-08-03T17:33:28.883Z,27.30
2023-08-03T17:35:55.848Z,27.30
2023-08-03T17:38:22.815Z,27.30
2023-08-03T17:40:53.558Z,27.30
2023-08-03T17:43:20.532Z,27.30
2023-08-03T17:45:48.401Z,27.30
2023-08-03T17:48:15.421Z,27.30
2023-08-03T17:50:43.202Z,27.30
2023-08-03T17:53:10.335Z,27.30
2023-08-03T17:55:37.233Z,27.30
2023-08-03T17:58:04.274Z,27.20
2023-08-03T18:00:31.799Z,27.20
2023-08-03T18:02:58.872Z,27.10
2023-08-03T18:05:28.008Z,27.10
2023-08-03T18:07:55.280Z,27.10
2023-08-03T18:10:22.206Z,27.00
2023-08-03T18:12:49.271Z,27.00
2023-08-03T18:15:16.331Z,27.00
2023-08-03T18:17:44.135Z,26.90
2023-08-03T18:20:11.420Z,26.90
2023-08-03T18:22:38.328Z,26.90
2023-08-03T18:25:05.356Z,26.80
2023-08-03T18:27:32.256Z,26.80
2023-08-03T18:29:59.232Z,26.80
2023-08-03T18:32:26.196Z,26.80
2023-08-03T18:34:53.165Z,26.80
2023-08-03T18:37:21.039Z,26.70
2023-08-03T18:39:48.060Z,26.70
2023-08-03T18:42:15.042Z,26.70
2023-08-03T18:44:41.979Z,26.70
2023-08-03T18:47:08.929Z,26.70
2023-08-03T18:49:35.828Z,26.60
2023-08-03T18:52:03.804Z,26.60
2023-08-03T18:54:30.770Z,26.60
2023-08-03T18:56:57.802Z,26.60
2023-08-03T18:59:24.678Z,26.60
2023-08-03T19:01:52.471Z,26.60
2023-08-03T19:04:19.504Z,26.60
2023-08-03T19:06:48.036Z,26.50
2023-08-03T19:09:15.204Z,26.50
2023-08-03T19:11:42.037Z,26.50
2023-08-03T19:14:10.304Z,26.50
2023-08-03T19:16:37.634Z,26.50
2023-08-03T19:19:04.871Z,26.50
2023-08-03T19:21:31.803Z,26.50
2023-08-03T19:23:58.720Z,26.50
2023-08-03T19:26:25.608Z,26.50
2023-08-03T19:28:52.540Z,26.50
2023-08-03T19:31:19.642Z,26.50
2023-08-03T19:33:46.582Z,26.50
2023-08-03T19:36:15.002Z,26.50
2023-08-03T19:38:41.989Z,26.50
2023-08-03T19:41:08.907Z,26.50
2023-08-03T19:43:35.837Z,26.50
2023-08-03T19:46:07.963Z,26.50
2023-08-03T19:48:34.886Z,26.40
2023-08-03T20:11:09.332Z,26.40
2023-08-03T20:13:56.141Z,26.30
2023-08-03T20:21:24.453Z,26.30
2023-08-03T20:23:51.511Z,26.30
2023-08-03T20:26:24.814Z,26.30
2023-08-03T20:28:53.506Z,26.30
2023-08-03T20:31:20.424Z,26.30
2023-08-03T20:33:47.534Z,26.30
2023-08-03T20:36:14.549Z,26.30
2023-08-03T20:38:45.658Z,26.30
2023-08-03T20:46:54.882Z,26.20
2023-08-03T20:49:06.369Z,26.20
2023-08-03T20:51:33.324Z,26.20
2023-08-03T20:54:00.177Z,26.20
2023-08-03T20:56:27.051Z,26.20
2023-08-03T20:58:54.129Z,26.20
2023-08-03T21:01:21.154Z,26.20
2023-08-03T21:03:48.152Z,26.20
2023-08-03T21:06:15.192Z,26.20
2023-08-03T21:08:42.132Z,26.20
2023-08-03T21:11:14.077Z,26.20
2023-08-03T21:13:41.321Z,26.20
2023-08-03T21:16:12.159Z,26.20
2023-08-03T21:21:16.595Z,26.20
2023-08-03T21:23:43.853Z,26.20
2023-08-03T21:26:11.078Z,26.20
2023-08-03T21:28:38.169Z,26.20
2023-08-03T21:31:05.084Z,26.20
2023-08-03T21:33:32.623Z,26.20
2023-08-03T21:36:00.194Z,26.20
2023-08-03T21:38:27.783Z,26.20
2023-08-03T21:40:54.826Z,26.20
2023-08-03T21:43:21.794Z,26.20
2023-08-03T21:45:52.817Z,26.20
2023-08-03T21:48:19.782Z,26.20
2023-08-03T21:50:47.521Z,26.20
2023-08-03T21:53:14.555Z,26.20
2023-08-03T21:55:42.381Z,26.20
2023-08-03T21:58:09.608Z,26.20
2023-08-03T22:00:38.059Z,26.20
2023-08-03T22:03:05.194Z,26.20
2023-08-03T22:05:32.287Z,26.20
2023-08-03T22:07:59.196Z,26.10
2023-08-03T22:10:26.210Z,26.10
2023-08-03T22:12:53.703Z,26.10
2023-08-03T22:15:20.815Z,26.20
2023-08-03T22:17:47.818Z,26.10
2023-08-03T22:20:16.753Z,26.10
2023-08-03T22:22:43.768Z,26.10
2023-08-03T22:25:11.135Z,26.10
2023-08-03T22:27:38.108Z,26.10
2023-08-03T22:30:05.403Z,26.10
2023-08-03T22:32:32.340Z,26.10
2023-08-03T22:34:59.293Z,26.10
2023-08-03T22:37:26.258Z,26.10
2023-08-03T22:39:53.704Z,26.10
2023-08-03T22:42:20.648Z,26.10
2023-08-03T22:44:47.818Z,26.10
2023-08-03T22:47:14.751Z,26.10
2023-08-03T22:49:41.725Z,26.10
2023-08-03T22:52:09.793Z,26.10
2023-08-03T22:54:36.774Z,26.10
2023-08-03T22:57:03.828Z,26.10
2023-08-03T22:59:30.813Z,26.10
2023-08-03T23:01:57.787Z,26.10
2023-08-03T23:04:24.912Z,26.00
2023-08-03T23:06:52.026Z,26.00
2023-08-03T23:09:19.067Z,26.10
2023-08-03T23:11:46.234Z,26.00
2023-08-03T23:14:13.363Z,26.00
2023-08-03T23:16:40.395Z,26.00
2023-08-03T23:19:07.920Z,26.00
2023-08-03T23:21:34.890Z,26.00
2023-08-03T23:24:01.894Z,26.10
2023-08-03T23:26:28.806Z,26.00
2023-08-03T23:28:55.905Z,26.00
2023-08-03T23:31:23.128Z,26.10
2023-08-03T23:33:50.176Z,26.10
2023-08-03T23:36:17.165Z,26.10
2023-08-03T23:38:44.174Z,26.10
2023-08-03T23:41:11.155Z,26.10
2023-08-03T23:43:38.046Z,26.10
2023-08-03T23:46:05.094Z,26.10
2023-08-03T23:48:32.050Z,26.10
2023-08-03T23:50:58.983Z,26.10
2023-08-03T23:53:25.927Z,26.10
2023-08-03T23:55:52.782Z,26.10
2023-08-03T23:58:20.278Z,26.10
